Accueil
METAR-TAF:

METAR-TAF

Aéroports :

Nouakchott, Mauritanie

Aéroport international de Nouakchott-Oumtounsy

latitude: 18-18-36N, longitude: 015-58-11W, altitude: 3 m

Observation

Le bulletin a été fait il y a 1 heure et 11 minutes, à 07:00 UTC
Vent 9 kt de nord
Température 22°C
Humidité 69%
Pression 1011 hPa
Visibilité: 7000 m

METAR: GQNO 270700Z 35009KT 7000 NSC 22/16 Q1011 NOSIG

Heure: 08:11 (08:11 UTC)

Prévision

Le bulletin a été fait il y a 3 heures et 11 minutes, à 05:00 UTC
Prévision valable du 27 à 06 UTC au 28 à 12 UTC
Vent 16 kt de nord/nord-ouest
Visibilité: 7000 m

TAF: GQNO 270500Z 2706/2812 34016KT 7000 NSC

Observations et prévisions météorologiques de plus de 4000 aéroports (messages METAR et TAF).

Les stations disponibles sont représentées par des disques jaunes et rouges sur la carte.

Passer la souris dessus pour voir le nom de la station.

Cliquer dessus pour voir les observations et prévisions météorologiques.

Pour changer de carte: cliquez sur les boutons verts avec une croix noire pour zoomer, sur le bouton vert avec un tiret pour effectuer un zoom arrière, ou sur les flèches vertes pour les cartes adjacentes.


METAR-TAF: